航空気象通報

ウインドサーファーのための航空気象通報による風予報です。

5/31-6/1の航空気象通報(国内、海外)

2008年05月31日 20時48分40秒 | TAF
羽田空港
TAF RJTT 310843Z 311812 02008KT 9999 FEW008 BKN015
BECMG 0003 13008KT
BECMG 0609 19018KT
日本時間1日03-09時:020度から8ノットの風
09-12時:風が変化
12-15時:130度から8ノットの風
15-18時:風が変化
18-21時:190度から18ノットの風


那覇空港
TAF ROAH 310836Z 311812 07008KT 9999 FEW015 BKN040
日本時間1日03-21時:070度から8ノットの風


マウイのカフルイ空港
PHOG 311134Z 311212 04010KT P6SM SKC
FM1800 04013G20KT P6SM BKN060
FM2100 04020G29KT P6SM SCT060
FM0400 04012G18KT P6SM FEW060
ハワイ時間31日02-08時:040度から10ノットの風

08-11時:040度から13ノット、突風20ノット

11-18時:040度から20ノット、突風29ノット
18時-1日02時:040度から12ノット、突風18ノット


サイパン空港
PGSN 311136Z 311212 09011KT P6SM VCSH SCT025
マリアナ時間31日23時-1日22時:090度から11ノットの風

コメント
この記事をはてなブックマークに追加

5/30-31の航空気象通報(国内、海外)

2008年05月30日 23時23分17秒 | TAF
羽田空港
TAF RJTT 300837Z 301812 36017KT 7000 -RA FEW006 BKN008 BKN012
TEMPO 1803 2500 RA BR BKN005 BKN008
BECMG 0306 SCT010 BKN020
日本時間31日03-21時:360度から17ノットの風
、但し、03-12時:一時、

那覇空港
TAF ROAH 300842Z 301812 02012KT 9999 FEW015 SCT025
日本時間31日03-21時:020度から12ノットの風


マウイのカフルイ空港
PHOG 301134Z 301212 05008KT P6SM SCT050
FM1800 04013G20KT P6SM FEW060
FM2100 04020G29KT P6SM SCT060
FM0500 04013KT P6SM FEW060
ハワイ時間30日02-08時:050度から8ノットの風
08-11時:040度から13ノット、突風20ノット
11-19時:040度から20ノット、突風29ノット
19時-31日02時:040度から13ノットの風


サイパン空港
PGSN 301120Z 301212 11009KT P6SM VCSH SCT020
マリアナ時間30日23時-31日22時:110度から9ノットの風

コメント
この記事をはてなブックマークに追加

5/29-30の航空気象通報(国内、海外)

2008年05月29日 23時21分40秒 | TAF
羽田空港
TAF RJTT 290846Z 291812 03016KT 9000 SCT015 BKN020
日本時間30日03-21時:030度から16ノットの風


那覇空港
TAF ROAH 290841Z 291812 22010KT 9999 FEW010 SCT020
TEMPO 0006 4000 SHRA FEW008 SCT015 BKN020 FEW020CB
BECMG 0306 32010KT
日本時間30日03-12時:220度から10ノットの風
12-15時:風が変化
15-21時:320度から10ノットの風
、但し、09-15時:一時、

マウイのカフルイ空港
PHOG 291124Z 291212 VRB05KT P6SM SCT050
FM2000 02015G23KT P6SM FEW050
FM0600 VRB05KT P6SM SCT050
ハワイ時間29日02-10時:風向不定5ノットの風
10-20時:020度から15ノット、突風23ノット
20時-30日02時:風向不定5ノットの風


サイパン空港
PGSN 291122Z 291212 11011KT P6SM VCSH SCT017 SCT050
マリアナ時間29日23時-30日22時:110度から11ノットの風

コメント
この記事をはてなブックマークに追加

5/28-29の航空気象通報(国内、海外)

2008年05月28日 23時39分49秒 | TAF
羽田空港
TAF RJTT 280843Z 281812 07010KT 6000 FEW008 SCT010 BKN020
TEMPO 2106 3000 RA BR FEW005 BKN008 BKN015
BECMG 0912 05012KT
日本時間29日03-18時:070度から10ノットの風
18-21時:風が変化
21時:050度から12ノットの風
、但し、06-15時:一時、

那覇空港
TAF ROAH 280843Z 281812 21012KT 9999 FEW008 SCT015
日本時間29日03-21時:210度から12ノットの風


マウイのカフルイ空港
PHOG 281129Z 281212 VRB05KT P6SM SCT050
FM2100 02010KT P6SM FEW050
FM0600 VRB05KT P6SM SCT050
ハワイ時間28日02-11時:風向不定5ノットの風
10-20時:020度から10ノットの風
20時-29日02時:風向不定5ノットの風


サイパン空港
TAFPQ TAF AMD PGSN 281322Z 281312 10006KT P6SM VCSH SCT020
マリアナ時間28日23時-29日22時:100度から6ノットの風

コメント
この記事をはてなブックマークに追加

5/27-28の航空気象通報(国内、海外)

2008年05月27日 21時53分39秒 | TAF
羽田空港
TAF RJTT 270844Z 271812 12004KT 8000 FEW020 SCT030
BECMG 0306 18012KT
日本時間28日03-12時:120度から4ノットの風
12-15時:風が変化
15-21時:180度から12ノットの風


那覇空港
TAF ROAH 270839Z 271812 18010KT 9999 FEW015 SCT025
日本時間28日03-21時:180度から10ノットの風


マウイのカフルイ空港
PHOG 271139Z 271212 VRB04KT P6SM SCT060
FM2000 05015G22KT P6SM SCT045
FM0300 05010KT P6SM SCT050
FM1000 VRB04KT P6SM SCT050
ハワイ時間27日02-10時:風向不定4ノットの風
10-17時:050度から15ノット、突風22ノット
17-24時:050度から10ノットの風
24時-28日02時:風向不定4ノットの風


サイパン空港
PGSN 271120Z 271212 10009KT P6SM VCSH SCT016 BKN110
マリアナ時間27日22時-28日22時:100度から9ノットの風

コメント
この記事をはてなブックマークに追加